createdAt,value
2022-11-20T00:01:22.018Z,98933.19
2022-11-20T00:03:48.581Z,98928.81
2022-11-20T00:06:17.999Z,98925.34
2022-11-20T00:08:45.438Z,98917.50
2022-11-20T00:11:17.617Z,98923.59
2022-11-20T00:13:45.654Z,98923.59
2022-11-20T00:16:16.232Z,98923.69
2022-11-20T00:18:43.420Z,98924.63
2022-11-20T00:21:15.581Z,98926.38
2022-11-20T00:23:43.167Z,98926.41
2022-11-20T00:26:13.441Z,98924.69
2022-11-20T00:28:40.257Z,98921.19
2022-11-20T00:31:09.375Z,98929.06
2022-11-20T00:33:36.105Z,98937.78
2022-11-20T00:36:04.836Z,98936.06
2022-11-20T00:38:32.554Z,98933.41
2022-11-20T00:41:00.497Z,98940.34
2022-11-20T00:43:27.708Z,98940.28
2022-11-20T00:46:02.064Z,98945.50
2022-11-20T00:48:29.067Z,98936.81
2022-11-20T00:50:56.346Z,98943.69
2022-11-20T00:53:23.198Z,98939.31
2022-11-20T00:56:05.915Z,98937.56
2022-11-20T00:58:35.154Z,98939.41
2022-11-20T01:01:04.250Z,98936.69
2022-11-20T01:03:36.208Z,98942.97
2022-11-20T01:06:04.515Z,98938.56
2022-11-20T01:08:36.093Z,98941.16
2022-11-20T01:11:04.823Z,98944.66
2022-11-20T01:13:38.303Z,98945.59
2022-11-20T01:16:14.822Z,98948.22
2022-11-20T01:18:44.027Z,98951.72
2022-11-20T01:21:17.311Z,98952.59
2022-11-20T01:23:45.056Z,98951.78
2022-11-20T01:26:14.336Z,98951.81
2022-11-20T01:28:42.343Z,98947.44
2022-11-20T01:31:32.128Z,98944.84
2022-11-20T01:34:01.476Z,98936.94
2022-11-20T01:36:30.387Z,98933.41
2022-11-20T01:38:59.753Z,98937.78
2022-11-20T01:41:46.975Z,98934.28
2022-11-20T01:44:16.206Z,98926.47
2022-11-20T01:47:05.610Z,98924.69
2022-11-20T01:49:38.484Z,98924.69
2022-11-20T01:52:11.620Z,98922.03
2022-11-20T01:54:48.246Z,98911.59
2022-11-20T01:57:16.433Z,98921.16
2022-11-20T01:59:48.901Z,98914.28
2022-11-20T02:02:15.787Z,98915.97
2022-11-20T02:04:42.213Z,98908.13
2022-11-20T02:07:09.480Z,98911.59
2022-11-20T02:09:36.058Z,98910.72
2022-11-20T02:12:03.791Z,98915.13
2022-11-20T02:14:30.499Z,98915.09
2022-11-20T02:16:58.288Z,98915.94
2022-11-20T02:19:28.728Z,98906.38
2022-11-20T02:22:11.310Z,98908.13
2022-11-20T02:24:37.964Z,98904.63
2022-11-20T02:27:13.444Z,98897.69
2022-11-20T02:29:54.466Z,98912.50
2022-11-20T02:32:29.813Z,98908.09
2022-11-20T02:34:56.555Z,98911.56
2022-11-20T02:37:24.072Z,98911.53
2022-11-20T02:39:52.652Z,98902.78
2022-11-20T02:42:19.849Z,98903.59
2022-11-20T02:44:46.407Z,98907.06
2022-11-20T02:47:13.059Z,98911.34
2022-11-20T02:49:39.651Z,98907.81
2022-11-20T02:52:06.176Z,98905.28
2022-11-20T02:54:32.694Z,98902.56
2022-11-20T02:56:59.276Z,98909.53
2022-11-20T02:59:25.771Z,98904.25
2022-11-20T03:01:52.297Z,98902.50
2022-11-20T03:04:18.886Z,98904.25
2022-11-20T03:06:45.487Z,98902.50
2022-11-20T03:09:12.290Z,98895.56
2022-11-20T03:11:38.791Z,98892.94
2022-11-20T03:14:06.665Z,98899.03
2022-11-20T03:16:33.853Z,98899.88
2022-11-20T03:19:00.966Z,98892.97
2022-11-20T03:21:27.521Z,98889.47
2022-11-20T03:23:55.250Z,98883.28
2022-11-20T03:26:25.216Z,98879.75
2022-11-20T03:28:54.335Z,98889.31
2022-11-20T03:31:23.808Z,98881.41
2022-11-20T03:33:51.188Z,98879.69
2022-11-20T03:36:19.818Z,98879.72
2022-11-20T03:38:46.387Z,98876.19
2022-11-20T03:41:22.100Z,98884.81
2022-11-20T03:43:50.736Z,98881.28
2022-11-20T03:46:17.805Z,98877.81
2022-11-20T03:48:50.144Z,98879.50
2022-11-20T03:51:23.822Z,98878.50
2022-11-20T03:53:52.454Z,98885.31
2022-11-20T03:56:22.169Z,98882.69
2022-11-20T03:58:48.964Z,98881.88
2022-11-20T04:01:21.028Z,98874.03
2022-11-20T04:03:48.138Z,98877.47
2022-11-20T04:06:18.653Z,98873.09
2022-11-20T04:08:49.663Z,98871.31
2022-11-20T04:11:24.226Z,98873.91
2022-11-20T04:14:02.078Z,98878.22
2022-11-20T04:16:31.915Z,98878.25
2022-11-20T04:19:00.748Z,98879.97
2022-11-20T04:21:28.057Z,98871.28
2022-11-20T04:23:55.345Z,98877.38
2022-11-20T04:26:23.703Z,98867.84
2022-11-20T04:28:50.650Z,98867.75
2022-11-20T04:31:21.334Z,98860.81
2022-11-20T04:33:47.872Z,98857.34
2022-11-20T04:36:20.151Z,98857.34
2022-11-20T04:38:51.345Z,98848.59
2022-11-20T04:41:22.207Z,98845.97
2022-11-20T04:43:54.171Z,98847.72
2022-11-20T04:46:21.708Z,98845.97
2022-11-20T04:48:48.939Z,98843.34
2022-11-20T04:51:15.938Z,98850.25
2022-11-20T04:53:43.394Z,98851.97
2022-11-20T04:56:12.517Z,98853.69
2022-11-20T04:58:39.636Z,98850.22
2022-11-20T05:01:10.109Z,98861.50
2022-11-20T05:03:42.059Z,98856.25
2022-11-20T05:06:11.065Z,98864.03
2022-11-20T05:08:37.954Z,98867.50
2022-11-20T05:11:08.940Z,98871.78
2022-11-20T05:13:35.758Z,98864.81
2022-11-20T05:16:06.566Z,98868.25
2022-11-20T05:18:34.900Z,98856.09
2022-11-20T05:21:01.661Z,98862.19
2022-11-20T05:23:30.099Z,98854.34
2022-11-20T05:25:59.357Z,98856.94
2022-11-20T05:28:27.979Z,98856.03
2022-11-20T05:30:54.766Z,98848.19
2022-11-20T05:33:21.795Z,98856.00
2022-11-20T05:35:49.471Z,98861.13
2022-11-20T05:38:16.578Z,98853.28
2022-11-20T05:40:43.190Z,98846.31
2022-11-20T05:43:09.699Z,98846.31
2022-11-20T05:45:36.305Z,98846.28
2022-11-20T05:48:02.895Z,98843.63
2022-11-20T05:50:29.461Z,98841.00
2022-11-20T05:52:56.161Z,98841.00
2022-11-20T05:55:22.712Z,98841.00
2022-11-20T05:57:49.187Z,98841.00
2022-11-20T06:00:16.188Z,98838.31
2022-11-20T06:02:42.891Z,98835.75
2022-11-20T06:05:09.605Z,98830.56
2022-11-20T06:07:36.244Z,98829.63
2022-11-20T06:10:03.033Z,98829.53
2022-11-20T06:12:29.795Z,98826.81
2022-11-20T06:14:56.312Z,98832.03
2022-11-20T06:17:22.780Z,98827.72
2022-11-20T06:19:49.281Z,98832.09
2022-11-20T06:22:15.966Z,98826.94
2022-11-20T06:24:42.453Z,98825.34
2022-11-20T06:27:09.103Z,98823.69
2022-11-20T06:29:35.859Z,98827.19
2022-11-20T06:32:02.686Z,98810.78
2022-11-20T06:34:29.121Z,98825.56
2022-11-20T06:36:55.664Z,98823.78
2022-11-20T06:39:22.428Z,98825.56
2022-11-20T06:41:49.090Z,98830.78
2022-11-20T06:44:15.450Z,98826.41
2022-11-20T06:46:42.010Z,98824.75
2022-11-20T06:49:08.489Z,98823.94
2022-11-20T06:51:34.979Z,98821.31
2022-11-20T06:54:02.081Z,98819.59
2022-11-20T06:56:29.084Z,98817.03
2022-11-20T06:58:55.529Z,98818.75
2022-11-20T07:01:22.160Z,98816.22
2022-11-20T07:03:54.455Z,98812.78
2022-11-20T07:06:21.338Z,98814.59
2022-11-20T07:08:48.060Z,98808.50
2022-11-20T07:11:14.634Z,98812.00
2022-11-20T07:13:41.097Z,98809.47
2022-11-20T07:16:09.010Z,98806.00
2022-11-20T07:18:36.154Z,98813.09
2022-11-20T07:21:09.040Z,98809.69
2022-11-20T07:23:35.611Z,98811.50
2022-11-20T07:26:09.894Z,98803.75
2022-11-20T07:28:36.937Z,98803.84
2022-11-20T07:31:04.174Z,98803.97
2022-11-20T07:33:30.679Z,98806.69
2022-11-20T07:35:59.933Z,98805.97
2022-11-20T07:38:26.436Z,98812.25
2022-11-20T07:40:57.401Z,98802.06
2022-11-20T07:43:24.956Z,98803.94
2022-11-20T07:45:51.655Z,98803.22
2022-11-20T07:48:18.181Z,98794.63
2022-11-20T07:50:44.703Z,98805.16
2022-11-20T07:53:11.409Z,98793.09
2022-11-20T07:55:37.909Z,98796.66
2022-11-20T07:58:04.412Z,98796.78
2022-11-20T08:00:31.005Z,98790.81
2022-11-20T08:02:57.664Z,98789.19
2022-11-20T08:05:24.305Z,98787.59
2022-11-20T08:07:50.856Z,98781.66
2022-11-20T08:10:17.499Z,98783.50
2022-11-20T08:13:11.176Z,98796.69
2022-11-20T08:15:41.124Z,98801.22
2022-11-20T08:21:03.147Z,98787.47
2022-11-20T08:23:29.585Z,98782.31
2022-11-20T08:25:56.167Z,98783.25
2022-11-20T08:28:22.839Z,98770.34
2022-11-20T08:30:51.040Z,98778.31
2022-11-20T08:33:18.612Z,98786.28
2022-11-20T08:35:45.293Z,98775.00
2022-11-20T08:38:11.848Z,98780.31
2022-11-20T08:40:38.348Z,98787.41
2022-11-20T08:43:05.418Z,98784.84
2022-11-20T08:45:34.531Z,98786.63
2022-11-20T08:48:03.884Z,98784.94
2022-11-20T08:50:33.115Z,98781.44
2022-11-20T08:53:06.809Z,98787.41
2022-11-20T08:55:34.000Z,98777.63
2022-11-20T08:58:05.351Z,98772.00
2022-11-20T09:00:33.299Z,98765.38
2022-11-20T09:03:01.820Z,98753.53
2022-11-20T09:05:28.671Z,98747.72
2022-11-20T09:07:59.017Z,98750.97
2022-11-20T09:10:26.112Z,98749.16
2022-11-20T09:12:53.445Z,98751.84
2022-11-20T09:15:20.289Z,98748.59
2022-11-20T09:17:59.128Z,98747.41
2022-11-20T09:20:26.777Z,98747.16
2022-11-20T09:23:36.854Z,98745.31
2022-11-20T09:26:13.222Z,98741.41
2022-11-20T09:28:40.244Z,98747.81
2022-11-20T09:31:07.642Z,98753.31
2022-11-20T09:33:34.183Z,98755.56
2022-11-20T09:36:00.774Z,98756.22
2022-11-20T09:38:27.332Z,98759.94
2022-11-20T09:41:02.453Z,98753.25
2022-11-20T09:43:52.232Z,98753.75
2022-11-20T09:46:26.765Z,98740.13
2022-11-20T09:49:02.521Z,98743.84
2022-11-20T09:51:54.800Z,98743.84
2022-11-20T09:54:24.125Z,98741.19
2022-11-20T09:57:03.839Z,98740.66
2022-11-20T09:59:43.464Z,98736.50
2022-11-20T10:02:23.562Z,98724.28
2022-11-20T10:04:59.909Z,98725.28
2022-11-20T10:07:56.326Z,98721.91
2022-11-20T10:10:52.286Z,98727.19
2022-11-20T10:13:51.476Z,98728.91
2022-11-20T10:16:55.282Z,98724.66
2022-11-20T10:19:58.849Z,98725.47
2022-11-20T10:22:44.104Z,98721.94
2022-11-20T10:25:20.462Z,98729.75
2022-11-20T10:28:08.749Z,98716.59
2022-11-20T10:30:41.589Z,98714.06
2022-11-20T10:33:18.537Z,98708.88
2022-11-20T10:35:51.898Z,98710.56
2022-11-20T10:38:24.684Z,98700.78
2022-11-20T10:41:21.782Z,98691.84
2022-11-20T10:43:51.803Z,98697.78
2022-11-20T10:46:22.739Z,98702.16
2022-11-20T10:48:50.589Z,98695.84
2022-11-20T10:51:32.659Z,98705.63
2022-11-20T10:53:59.100Z,98707.94
2022-11-20T10:56:50.195Z,98702.03
2022-11-20T10:59:39.618Z,98701.22
2022-11-20T11:02:21.643Z,98703.13
2022-11-20T11:04:53.871Z,98703.91
2022-11-20T11:07:26.504Z,98702.00
2022-11-20T11:09:57.873Z,98694.88
2022-11-20T11:12:29.799Z,98692.16
2022-11-20T11:14:59.005Z,98687.66
2022-11-20T11:17:31.830Z,98688.44
2022-11-20T11:20:04.471Z,98678.72
2022-11-20T11:22:33.271Z,98679.47
2022-11-20T11:25:00.297Z,98682.94
2022-11-20T11:27:26.737Z,98673.38
2022-11-20T11:30:12.964Z,98664.63
2022-11-20T11:32:39.478Z,98664.59
2022-11-20T11:35:19.116Z,98660.28
2022-11-20T11:37:48.116Z,98653.34
2022-11-20T11:40:30.595Z,98655.16
2022-11-20T11:43:05.608Z,98644.56
2022-11-20T11:45:32.361Z,98632.88
2022-11-20T11:48:04.353Z,98634.47
2022-11-20T11:50:32.040Z,98630.97
2022-11-20T11:53:14.258Z,98627.34
2022-11-20T11:55:48.041Z,98630.91
2022-11-20T11:58:41.830Z,98626.59
2022-11-20T12:01:35.208Z,98633.03
2022-11-20T12:04:11.179Z,98621.75
2022-11-20T12:06:43.377Z,98621.28
2022-11-20T12:09:12.279Z,98615.28
2022-11-20T12:11:43.960Z,98613.41
2022-11-20T12:14:25.104Z,98615.06
2022-11-20T12:16:53.813Z,98616.69
2022-11-20T12:19:21.059Z,98614.97
2022-11-20T12:22:08.571Z,98614.88
2022-11-20T12:24:50.877Z,98615.69
2022-11-20T12:27:29.502Z,98618.50
2022-11-20T12:30:04.700Z,98611.38
2022-11-20T12:32:39.941Z,98622.94
2022-11-20T12:35:11.272Z,98612.56
2022-11-20T12:37:58.356Z,98613.25
2022-11-20T12:40:51.498Z,98618.47
2022-11-20T12:43:45.836Z,98616.69
2022-11-20T12:46:27.770Z,98609.56
2022-11-20T12:49:27.115Z,98614.88
2022-11-20T12:51:53.641Z,98620.41
2022-11-20T12:54:29.449Z,98619.75
2022-11-20T12:57:34.846Z,98615.44
2022-11-20T13:00:08.252Z,98626.06
2022-11-20T13:02:53.085Z,98620.78
2022-11-20T13:05:25.691Z,98610.31
2022-11-20T13:07:54.555Z,98610.38
2022-11-20T13:10:42.495Z,98614.84
2022-11-20T13:13:47.570Z,98614.03
2022-11-20T13:16:47.039Z,98613.31
2022-11-20T13:19:16.723Z,98602.78
2022-11-20T13:21:50.385Z,98608.22
2022-11-20T13:24:20.472Z,98597.66
2022-11-20T13:26:47.990Z,98595.06
2022-11-20T13:29:19.927Z,98590.69
2022-11-20T13:31:49.232Z,98593.28
2022-11-20T13:34:27.078Z,98589.75
2022-11-20T13:36:58.778Z,98592.34
2022-11-20T13:39:26.854Z,98587.88
2022-11-20T13:42:16.317Z,98589.56
2022-11-20T13:44:51.796Z,98586.94
2022-11-20T13:47:21.496Z,98589.66
2022-11-20T13:49:49.352Z,98593.13
2022-11-20T13:52:30.984Z,98587.91
2022-11-20T13:55:03.639Z,98583.53
2022-11-20T13:57:45.054Z,98590.59
2022-11-20T14:00:14.360Z,98596.78
2022-11-20T14:02:41.625Z,98591.53
2022-11-20T14:05:20.332Z,98586.31
2022-11-20T14:07:48.631Z,98593.34
2022-11-20T14:10:32.051Z,98581.94
2022-11-20T14:12:59.739Z,98586.31
2022-11-20T14:15:26.406Z,98582.06
2022-11-20T14:17:52.911Z,98589.97
2022-11-20T14:20:24.156Z,98585.63
2022-11-20T14:22:54.052Z,98584.69
2022-11-20T14:25:31.574Z,98593.47
2022-11-20T14:28:01.396Z,98584.75
2022-11-20T14:30:37.165Z,98582.91
2022-11-20T14:33:05.006Z,98576.78
2022-11-20T14:35:37.901Z,98584.66
2022-11-20T14:38:05.161Z,98580.47
2022-11-20T14:40:37.153Z,98586.72
2022-11-20T14:43:17.372Z,98588.66
2022-11-20T14:45:50.111Z,98589.59
2022-11-20T14:48:16.831Z,98594.06
2022-11-20T14:50:51.932Z,98586.25
2022-11-20T14:53:44.671Z,98581.97
2022-11-20T14:56:12.354Z,98575.00
2022-11-20T14:58:39.477Z,98567.16
2022-11-20T15:01:08.498Z,98565.44
2022-11-20T15:03:37.627Z,98569.03
2022-11-20T15:09:14.090Z,98567.34
2022-11-20T15:11:51.851Z,98571.75
2022-11-20T15:14:18.448Z,98570.03
2022-11-20T15:16:44.988Z,98573.59
2022-11-20T15:19:19.144Z,98565.75
2022-11-20T15:21:45.781Z,98565.81
2022-11-20T15:24:12.214Z,98552.78
2022-11-20T15:26:41.221Z,98551.13
2022-11-20T15:29:19.611Z,98551.19
2022-11-20T15:31:46.595Z,98556.53
2022-11-20T15:34:13.781Z,98560.13
2022-11-20T15:36:41.110Z,98566.28
2022-11-20T15:39:12.032Z,98568.00
2022-11-20T15:41:39.120Z,98569.81
2022-11-20T15:44:05.907Z,98569.88
2022-11-20T15:46:39.327Z,98570.81
2022-11-20T15:49:07.023Z,98576.09
2022-11-20T15:51:38.677Z,98572.66
2022-11-20T15:54:21.424Z,98571.84
2022-11-20T15:56:49.159Z,98571.81
2022-11-20T15:59:16.205Z,98574.38
2022-11-20T16:01:43.025Z,98583.22
2022-11-20T16:04:14.303Z,98585.78
2022-11-20T16:06:41.167Z,98583.09
2022-11-20T16:09:08.389Z,98579.63
2022-11-20T16:11:37.434Z,98580.47
2022-11-20T16:14:23.593Z,98576.91
2022-11-20T16:16:50.671Z,98566.50
2022-11-20T16:19:18.289Z,98572.63
2022-11-20T16:21:45.286Z,98573.53
2022-11-20T16:24:13.744Z,98571.91
2022-11-20T16:26:41.026Z,98571.06
2022-11-20T16:29:07.755Z,98575.38
2022-11-20T16:31:34.743Z,98579.78
2022-11-20T16:34:05.854Z,98582.44
2022-11-20T16:36:36.578Z,98577.28
2022-11-20T16:39:04.411Z,98576.47
2022-11-20T16:41:33.688Z,98576.50
2022-11-20T16:44:02.294Z,98580.03
2022-11-20T16:46:33.091Z,98583.53
2022-11-20T16:49:01.840Z,98588.84
2022-11-20T16:51:30.842Z,98587.97
2022-11-20T16:53:57.769Z,98581.84
2022-11-20T16:56:26.513Z,98579.19
2022-11-20T16:58:55.519Z,98587.97
2022-11-20T17:01:23.714Z,98576.63
2022-11-20T17:04:06.420Z,98575.75
2022-11-20T17:06:35.542Z,98578.41
2022-11-20T17:09:02.360Z,98578.44
2022-11-20T17:11:29.339Z,98581.97
2022-11-20T17:13:56.753Z,98587.22
2022-11-20T17:16:24.991Z,98589.00
2022-11-20T17:18:51.637Z,98590.75
2022-11-20T17:21:19.244Z,98586.44
2022-11-20T17:23:46.875Z,98585.56
2022-11-20T17:26:17.700Z,98570.69
2022-11-20T17:28:46.220Z,98575.94
2022-11-20T17:31:17.427Z,98570.69
2022-11-20T17:33:46.388Z,98575.03
2022-11-20T17:36:16.420Z,98564.56
2022-11-20T17:38:44.529Z,98565.44
2022-11-20T17:41:12.421Z,98562.81
2022-11-20T17:43:39.645Z,98563.69
2022-11-20T17:46:07.918Z,98557.59
2022-11-20T17:48:35.664Z,98561.06
2022-11-20T17:51:03.903Z,98554.94
2022-11-20T17:53:34.694Z,98561.06
2022-11-20T17:56:19.394Z,98568.06
2022-11-20T17:58:45.866Z,98559.34
2022-11-20T18:01:12.411Z,98556.69
2022-11-20T18:03:39.130Z,98546.19
2022-11-20T18:06:17.012Z,98554.94
2022-11-20T18:08:43.630Z,98547.03
2022-11-20T18:11:33.657Z,98547.88
2022-11-20T18:14:20.710Z,98540.91
2022-11-20T18:16:50.769Z,98544.38
2022-11-20T18:19:28.717Z,98543.53
2022-11-20T18:22:00.109Z,98537.44
2022-11-20T18:24:26.650Z,98534.81
2022-11-20T18:26:53.201Z,98536.56
2022-11-20T18:29:19.800Z,98537.41
2022-11-20T18:31:46.514Z,98540.91
2022-11-20T18:34:14.210Z,98547.91
2022-11-20T18:36:42.517Z,98546.13
2022-11-20T18:39:14.130Z,98545.28
2022-11-20T18:41:59.736Z,98537.41
2022-11-20T18:44:49.709Z,98533.91
2022-11-20T18:47:19.082Z,98539.16
2022-11-20T18:49:52.725Z,98538.28
2022-11-20T18:52:26.520Z,98539.16
2022-11-20T18:54:53.799Z,98544.38
2022-11-20T18:57:23.535Z,98535.66
2022-11-20T18:59:50.048Z,98538.25
2022-11-20T19:02:18.837Z,98536.50
2022-11-20T19:04:45.641Z,98539.97
2022-11-20T19:07:13.758Z,98529.47
2022-11-20T19:09:42.144Z,98528.59
2022-11-20T19:12:10.609Z,98526.84
2022-11-20T19:14:37.510Z,98529.44
2022-11-20T19:17:06.369Z,98534.66
2022-11-20T19:19:34.698Z,98522.44
2022-11-20T19:22:01.394Z,98521.56
2022-11-20T19:24:28.429Z,98517.19
2022-11-20T19:26:58.310Z,98511.94
2022-11-20T19:29:25.657Z,98519.81
2022-11-20T19:31:52.656Z,98516.28
2022-11-20T19:34:19.186Z,98510.19
2022-11-20T19:36:46.541Z,98504.94
2022-11-20T19:39:13.358Z,98502.31
2022-11-20T19:41:40.766Z,98498.81
2022-11-20T19:44:11.106Z,98500.53
2022-11-20T19:46:39.275Z,98499.66
2022-11-20T19:49:10.139Z,98484.81
2022-11-20T19:51:38.953Z,98485.69
2022-11-20T19:54:06.408Z,98491.78
2022-11-20T19:56:34.041Z,98497.84
2022-11-20T19:59:01.434Z,98493.47
2022-11-20T20:01:30.760Z,98493.47
2022-11-20T20:04:02.516Z,98489.97
2022-11-20T20:06:29.950Z,98501.28
2022-11-20T20:09:05.454Z,98501.28
2022-11-20T20:11:34.128Z,98496.91
2022-11-20T20:14:02.485Z,98493.41
2022-11-20T20:16:29.485Z,98478.63
2022-11-20T20:19:01.260Z,98478.63
2022-11-20T20:21:31.910Z,98476.88
2022-11-20T20:23:59.258Z,98469.03
2022-11-20T20:26:28.380Z,98478.63
2022-11-20T20:28:55.696Z,98475.16
2022-11-20T20:31:25.295Z,98481.28
2022-11-20T20:33:52.149Z,98474.28
2022-11-20T20:36:20.354Z,98469.94
2022-11-20T20:38:47.296Z,98464.75
2022-11-20T20:41:14.385Z,98459.53
2022-11-20T20:44:00.273Z,98462.22
2022-11-20T20:46:26.822Z,98463.09
2022-11-20T20:48:54.914Z,98457.88
2022-11-20T20:51:22.702Z,98450.94
2022-11-20T20:53:50.038Z,98450.97
2022-11-20T20:56:17.790Z,98454.44
2022-11-20T20:58:44.500Z,98450.13
2022-11-20T21:01:13.713Z,98447.50
2022-11-20T21:03:40.617Z,98433.56
2022-11-20T21:06:09.329Z,98440.53
2022-11-20T21:08:39.965Z,98427.44
2022-11-20T21:11:10.017Z,98425.69
2022-11-20T21:13:37.729Z,98423.94
2022-11-20T21:16:04.708Z,98412.59
2022-11-20T21:18:31.667Z,98420.44
2022-11-20T21:21:16.704Z,98416.94
2022-11-20T21:23:47.052Z,98410.81
2022-11-20T21:26:15.826Z,98402.06
2022-11-20T21:28:42.701Z,98388.09
2022-11-20T21:31:24.979Z,98389.81
2022-11-20T21:33:53.593Z,98386.28
2022-11-20T21:36:27.989Z,98384.50
2022-11-20T21:38:55.534Z,98371.38
2022-11-20T21:41:23.540Z,98356.50
2022-11-20T21:44:23.998Z,98351.22
2022-11-20T21:46:43.573Z,98344.19
2022-11-20T21:49:10.531Z,98341.56
2022-11-20T21:51:37.271Z,98345.06
2022-11-20T21:54:03.846Z,98343.25
2022-11-20T21:56:30.304Z,98340.59
2022-11-20T21:58:56.773Z,98332.72
2022-11-20T22:01:26.604Z,98325.72
2022-11-20T22:03:58.344Z,98330.03
2022-11-20T22:06:27.208Z,98324.75
2022-11-20T22:08:53.678Z,98324.72
2022-11-20T22:11:21.916Z,98327.31
2022-11-20T22:14:07.485Z,98320.28
2022-11-20T22:16:35.154Z,98315.03
2022-11-20T22:19:01.915Z,98311.47
2022-11-20T22:21:30.430Z,98305.31
2022-11-20T22:24:00.494Z,98293.97
2022-11-20T22:26:29.039Z,98296.59
2022-11-20T22:28:57.655Z,98294.75
2022-11-20T22:31:26.962Z,98280.75
2022-11-20T22:33:53.670Z,98295.56
2022-11-20T22:36:22.622Z,98287.69
2022-11-20T22:38:49.300Z,98284.16
2022-11-20T22:41:21.635Z,98264.88
2022-11-20T22:43:53.255Z,98263.94
2022-11-20T22:46:20.372Z,98264.75
2022-11-20T22:48:51.993Z,98256.88
2022-11-20T22:51:21.405Z,98263.88
2022-11-20T22:53:48.916Z,98266.44
2022-11-20T22:56:16.750Z,98260.25
2022-11-20T22:58:45.337Z,98258.50
2022-11-20T23:01:17.339Z,98258.47
2022-11-20T23:03:48.162Z,98254.91
2022-11-20T23:06:16.247Z,98248.75
2022-11-20T23:08:43.115Z,98249.56
2022-11-20T23:11:12.894Z,98242.47
2022-11-20T23:13:39.948Z,98236.28
2022-11-20T23:16:11.270Z,98230.19
2022-11-20T23:18:38.226Z,98220.59
2022-11-20T23:21:09.674Z,98223.22
2022-11-20T23:23:36.498Z,98221.47
2022-11-20T23:26:08.585Z,98205.66
2022-11-20T23:28:35.245Z,98210.88
2022-11-20T23:31:02.689Z,98208.25
2022-11-20T23:33:29.163Z,98211.72
2022-11-20T23:35:56.432Z,98208.22
2022-11-20T23:38:22.954Z,98205.56
2022-11-20T23:40:50.893Z,98207.28
2022-11-20T23:43:19.609Z,98193.25
2022-11-20T23:45:51.307Z,98195.00
2022-11-20T23:48:18.652Z,98188.75
2022-11-20T23:50:45.544Z,98180.84
2022-11-20T23:53:14.238Z,98179.03
2022-11-20T23:55:51.610Z,98173.75
2022-11-20T23:58:18.258Z,98163.22
